Time;durP1;ratioP1;P1;durP2;ratioP2;P2;SDS_P1;SDS_P2;PMS_P1;PMS_P2;Temp;Humidity;BMP_temperature;BMP_pressure;BME280_temperature;BME280_humidity;BME280_pressure;Samples;Min_cycle;Max_cycle;Signal;HPM_P1;HPM_P2
2022/05/23 00:00:06;;;;;;;;;;;16.90;99.90;;;;;;5059765;28;19927;-83
2022/05/23 00:02:33;;;;;;;;;;;16.80;99.90;;;;;;5045844;28;19924;-83
2022/05/23 00:05:00;;;;;;;;;;;16.80;99.90;;;;;;5073443;28;19931;-82
2022/05/23 00:07:29;;;;;;;;;;;16.80;99.90;;;;;;5073231;28;19920;-83
2022/05/23 00:09:55;;;;;;;;;;;16.80;99.90;;;;;;5070983;28;19920;-83
2022/05/23 00:12:23;;;;;;;;;;;16.80;99.90;;;;;;5053317;28;20047;-82
2022/05/23 00:14:51;;;;;;;;;;;16.80;99.90;;;;;;5072823;28;19966;-82
2022/05/23 00:17:18;;;;;;;;;;;16.80;99.90;;;;;;5072004;28;19924;-82
2022/05/23 00:19:45;;;;;;;;;;;16.80;99.90;;;;;;5047883;28;19931;-83
2022/05/23 00:22:14;;;;;;;;;;;16.70;99.90;;;;;;5052495;28;20247;-82
2022/05/23 00:24:41;;;;;;;;;;;16.70;99.90;;;;;;5049269;28;19921;-82
2022/05/23 00:27:09;;;;;;;;;;;16.70;99.90;;;;;;5072563;28;19993;-82
2022/05/23 00:29:36;;;;;;;;;;;16.80;99.90;;;;;;5072132;28;19928;-83
2022/05/23 00:37:33;;;;;;;;;;;16.70;99.90;;;;;;5078834;28;19908;-82
2022/05/23 00:40:00;;;;;;;;;;;16.70;99.90;;;;;;5090372;28;19909;-82
2022/05/23 00:45:14;;;;;;;;;;;16.60;99.90;;;;;;5048514;28;19971;-82
2022/05/23 00:47:43;;;;;;;;;;;16.60;99.90;;;;;;5055543;28;19926;-83
2022/05/23 00:50:11;;;;;;;;;;;16.60;99.90;;;;;;5076586;28;19920;-83
2022/05/23 00:52:40;;;;;;;;;;;16.60;99.90;;;;;;5058267;28;20046;-83
2022/05/23 00:55:10;;;;;;;;;;;16.60;99.90;;;;;;5058917;28;19935;-83
2022/05/23 00:57:41;;;;;;;;;;;16.60;99.90;;;;;;5059111;28;19920;-83
2022/05/23 01:00:10;;;;;;;;;;;16.60;99.90;;;;;;5075699;28;19924;-82
2022/05/23 01:02:37;;;;;;;;;;;16.60;99.90;;;;;;5052941;28;19928;-82
2022/05/23 01:05:06;;;;;;;;;;;16.60;99.90;;;;;;5073338;28;20010;-82
2022/05/23 01:07:33;;;;;;;;;;;16.60;99.90;;;;;;5069491;28;19924;-82
2022/05/23 01:09:59;;;;;;;;;;;16.60;99.90;;;;;;5057594;28;19921;-82
2022/05/23 01:12:27;;;;;;;;;;;16.70;99.90;;;;;;5056646;28;19931;-82
2022/05/23 01:14:55;;;;;;;;;;;16.70;99.90;;;;;;5058210;28;19924;-84
2022/05/23 01:17:23;;;;;;;;;;;16.70;99.90;;;;;;5060961;28;19920;-81
2022/05/23 01:19:50;;;;;;;;;;;16.70;99.90;;;;;;5068404;28;19923;-82
2022/05/23 01:22:24;;;;;;;;;;;16.70;99.90;;;;;;5070143;28;20008;-83
2022/05/23 01:24:55;;;;;;;;;;;16.70;99.90;;;;;;5060013;28;19932;-83
2022/05/23 01:27:24;;;;;;;;;;;16.70;99.90;;;;;;5055459;28;20395;-83
2022/05/23 01:29:51;;;;;;;;;;;16.70;99.90;;;;;;5058807;28;19921;-83
2022/05/23 01:32:19;;;;;;;;;;;16.70;99.90;;;;;;5058644;28;19924;-83
2022/05/23 01:34:49;;;;;;;;;;;16.70;99.90;;;;;;5059609;28;20020;-82
2022/05/23 01:37:18;;;;;;;;;;;16.70;99.90;;;;;;5053329;28;19921;-83
2022/05/23 01:40:08;;;;;;;;;;;16.70;99.90;;;;;;5038455;28;19928;-83
2022/05/23 01:42:45;;;;;;;;;;;16.60;99.90;;;;;;5054895;28;20411;-83
2022/05/23 01:45:13;;;;;;;;;;;16.60;99.90;;;;;;5053403;28;19928;-83
2022/05/23 01:47:40;;;;;;;;;;;16.60;99.90;;;;;;5059330;28;20312;-83
2022/05/23 01:50:07;;;;;;;;;;;16.60;99.90;;;;;;5057612;28;19927;-83
2022/05/23 01:52:37;;;;;;;;;;;16.60;99.90;;;;;;5058029;28;20002;-83
2022/05/23 01:55:11;;;;;;;;;;;16.60;99.90;;;;;;5059110;28;20364;-83
2022/05/23 01:57:41;;;;;;;;;;;16.70;99.90;;;;;;5058501;28;19961;-83
2022/05/23 02:02:55;;;;;;;;;;;16.70;99.90;;;;;;5057123;28;20049;-83
2022/05/23 02:05:25;;;;;;;;;;;16.70;99.90;;;;;;5049988;28;20001;-83
2022/05/23 02:07:52;;;;;;;;;;;16.70;99.90;;;;;;5058902;28;19932;-83
2022/05/23 02:10:19;;;;;;;;;;;16.70;99.90;;;;;;5062105;28;20011;-84
2022/05/23 02:12:48;;;;;;;;;;;16.70;99.90;;;;;;5061638;28;19943;-83
2022/05/23 02:15:20;;;;;;;;;;;16.70;99.90;;;;;;5059068;28;19924;-83
2022/05/23 02:18:13;;;;;;;;;;;16.70;99.90;;;;;;5070114;28;19920;-83
2022/05/23 02:20:39;;;;;;;;;;;16.70;99.90;;;;;;5058088;28;19921;-83
2022/05/23 02:23:07;;;;;;;;;;;16.70;99.90;;;;;;5075729;28;19924;-83
2022/05/23 02:25:34;;;;;;;;;;;16.70;99.90;;;;;;5060053;28;20026;-83
2022/05/23 02:28:17;;;;;;;;;;;16.70;99.90;;;;;;5058559;28;19931;-83
2022/05/23 02:30:46;;;;;;;;;;;16.60;99.90;;;;;;5055638;28;20388;-83
2022/05/23 02:33:26;;;;;;;;;;;16.70;99.90;;;;;;5053949;28;19928;-83
2022/05/23 02:36:07;;;;;;;;;;;16.70;99.90;;;;;;5050116;28;20022;-84
2022/05/23 02:38:35;;;;;;;;;;;16.70;99.90;;;;;;5058482;28;19940;-83
2022/05/23 02:41:02;;;;;;;;;;;16.70;99.90;;;;;;5057952;28;19969;-82
2022/05/23 02:43:31;;;;;;;;;;;16.80;99.90;;;;;;5055185;28;19980;-83
2022/05/23 02:45:59;;;;;;;;;;;16.80;99.90;;;;;;5074017;28;19920;-82
2022/05/23 02:48:26;;;;;;;;;;;16.80;99.90;;;;;;5058818;28;19951;-83
2022/05/23 02:50:54;;;;;;;;;;;16.80;99.90;;;;;;5075947;28;19959;-82
2022/05/23 02:53:21;;;;;;;;;;;16.80;99.90;;;;;;5058533;28;19932;-83
2022/05/23 02:55:51;;;;;;;;;;;16.80;99.90;;;;;;5057563;28;19924;-82
2022/05/23 02:58:17;;;;;;;;;;;16.90;99.90;;;;;;5060088;28;20196;-83
2022/05/23 03:00:44;;;;;;;;;;;16.90;99.90;;;;;;5080687;28;19908;-82
2022/05/23 03:03:12;;;;;;;;;;;16.80;99.90;;;;;;5071259;28;19924;-83
2022/05/23 03:05:45;;;;;;;;;;;16.90;99.90;;;;;;5056993;28;20011;-82
2022/05/23 03:08:14;;;;;;;;;;;16.90;99.90;;;;;;5058074;28;19920;-83
2022/05/23 03:10:41;;;;;;;;;;;16.90;99.90;;;;;;5060923;28;19920;-82
2022/05/23 03:13:10;;;;;;;;;;;16.90;99.90;;;;;;5057919;28;19908;-83
2022/05/23 03:15:37;;;;;;;;;;;16.80;99.90;;;;;;5060839;28;19928;-82
2022/05/23 03:18:04;;;;;;;;;;;16.90;99.90;;;;;;5060218;28;19931;-83
2022/05/23 03:20:34;;;;;;;;;;;16.90;99.90;;;;;;5066418;28;19999;-82
2022/05/23 03:28:31;;;;;;;;;;;16.80;99.90;;;;;;5061521;28;20018;-82
2022/05/23 03:30:58;;;;;;;;;;;16.80;99.90;;;;;;5044297;28;20003;-83
2022/05/23 03:33:25;;;;;;;;;;;16.80;99.90;;;;;;5072972;28;20618;-84
2022/05/23 03:35:53;;;;;;;;;;;16.80;99.90;;;;;;5056994;28;19924;-84
2022/05/23 03:38:22;;;;;;;;;;;16.80;99.90;;;;;;5056262;28;19924;-84
2022/05/23 03:40:49;;;;;;;;;;;16.70;99.90;;;;;;5072530;28;20615;-85
2022/05/23 03:43:16;;;;;;;;;;;16.70;99.90;;;;;;5077330;28;19996;-84
2022/05/23 03:45:44;;;;;;;;;;;16.60;99.90;;;;;;5038186;28;19924;-83
2022/05/23 03:48:12;;;;;;;;;;;16.60;99.90;;;;;;5048096;28;19920;-84
2022/05/23 03:50:39;;;;;;;;;;;16.40;99.90;;;;;;5046298;28;20011;-84
2022/05/23 03:53:10;;;;;;;;;;;16.30;99.90;;;;;;5065658;28;20000;-83
2022/05/23 03:55:44;;;;;;;;;;;16.10;99.90;;;;;;5057043;28;19924;-84
2022/05/23 03:58:16;;;;;;;;;;;16.00;99.90;;;;;;5058650;28;20020;-84
2022/05/23 04:00:49;;;;;;;;;;;16.00;99.90;;;;;;5057494;28;19924;-84
2022/05/23 04:03:16;;;;;;;;;;;15.80;99.90;;;;;;5057847;28;19920;-83
2022/05/23 04:05:43;;;;;;;;;;;15.80;99.90;;;;;;5039320;28;19999;-83
2022/05/23 04:08:17;;;;;;;;;;;15.70;99.90;;;;;;5052654;28;19927;-83
2022/05/23 04:10:51;;;;;;;;;;;15.70;99.90;;;;;;5061057;28;19931;-85
2022/05/23 04:13:17;;;;;;;;;;;15.80;99.90;;;;;;5057603;28;19931;-83
2022/05/23 04:15:45;;;;;;;;;;;15.70;99.90;;;;;;5059003;28;19924;-85
2022/05/23 04:18:12;;;;;;;;;;;15.70;99.90;;;;;;5059589;28;19931;-85
2022/05/23 04:20:39;;;;;;;;;;;15.80;99.90;;;;;;5059389;28;20408;-85
2022/05/23 04:23:15;;;;;;;;;;;15.80;99.90;;;;;;5058903;28;20908;-86
2022/05/23 04:25:44;;;;;;;;;;;15.80;99.90;;;;;;5068232;28;19924;-85
2022/05/23 04:28:11;;;;;;;;;;;15.80;99.90;;;;;;5049724;28;19924;-85
2022/05/23 04:37:12;;;;;;;;;;;16.20;99.90;;;;;;4993500;28;19929;-91
2022/05/23 04:45:45;;;;;;;;;;;16.50;99.90;;;;;;5095244;27;19983;-81
2022/05/23 04:51:09;;;;;;;;;;;16.80;99.90;;;;;;5020171;28;20396;-72
2022/05/23 04:53:41;;;;;;;;;;;16.90;99.90;;;;;;5003293;28;20563;-72
2022/05/23 04:56:17;;;;;;;;;;;16.90;99.90;;;;;;5005896;28;20499;-73
2022/05/23 04:58:44;;;;;;;;;;;16.90;99.90;;;;;;5031864;28;20701;-72
2022/05/23 05:01:12;;;;;;;;;;;17.10;99.90;;;;;;4991176;28;20422;-73
2022/05/23 05:03:39;;;;;;;;;;;17.20;99.90;;;;;;5013149;28;19941;-72
2022/05/23 05:06:06;;;;;;;;;;;17.40;99.90;;;;;;5031479;28;20048;-72
2022/05/23 05:08:33;;;;;;;;;;;18.70;99.90;;;;;;5013188;28;19938;-72
2022/05/23 05:11:02;;;;;;;;;;;18.40;99.90;;;;;;5012600;28;20181;-72
2022/05/23 05:13:29;;;;;;;;;;;17.90;99.90;;;;;;5007509;28;19934;-72
2022/05/23 05:15:59;;;;;;;;;;;18.00;99.90;;;;;;5011181;28;19945;-72
2022/05/23 05:18:30;;;;;;;;;;;18.20;99.90;;;;;;4997582;28;20733;-72
2022/05/23 05:21:26;;;;;;;;;;;18.20;99.90;;;;;;4998262;28;19933;-72
2022/05/23 05:24:11;;;;;;;;;;;18.30;99.90;;;;;;5000851;28;20606;-72
2022/05/23 05:26:46;;;;;;;;;;;18.60;99.90;;;;;;5006964;28;19974;-72
2022/05/23 05:29:13;;;;;;;;;;;18.80;99.90;;;;;;5536150;22;19933;-72
2022/05/23 05:31:45;;;;;;;;;;;20.20;99.90;;;;;;5024318;28;19934;-72
2022/05/23 05:34:17;;;;;;;;;;;19.10;99.90;;;;;;5021956;28;19968;-72
2022/05/23 05:36:45;;;;;;;;;;;19.90;99.90;;;;;;5022914;28;19933;-72
2022/05/23 05:39:15;;;;;;;;;;;19.60;99.90;;;;;;5021777;28;20020;-72
2022/05/23 05:41:43;;;;;;;;;;;19.80;99.90;;;;;;5022447;28;19952;-71
2022/05/23 05:44:14;;;;;;;;;;;20.00;99.90;;;;;;5022421;28;19992;-73
2022/05/23 05:46:46;;;;;;;;;;;20.20;99.90;;;;;;5019828;28;20881;-72
2022/05/23 05:49:21;;;;;;;;;;;20.40;99.90;;;;;;5025763;28;19996;-72
2022/05/23 05:51:49;;;;;;;;;;;20.50;99.90;;;;;;5019911;28;19933;-72
2022/05/23 05:54:47;;;;;;;;;;;20.50;99.90;;;;;;5035538;28;19975;-72
2022/05/23 05:57:14;;;;;;;;;;;20.50;99.90;;;;;;5014518;28;19995;-72
2022/05/23 05:59:41;;;;;;;;;;;20.50;99.90;;;;;;5020280;28;19929;-71
2022/05/23 06:02:09;;;;;;;;;;;20.50;99.90;;;;;;5026377;28;19936;-72
2022/05/23 06:04:38;;;;;;;;;;;20.60;99.90;;;;;;5009225;28;19944;-72
2022/05/23 06:12:48;;;;;;;;;;;20.50;99.90;;;;;;5023009;28;19928;-72
2022/05/23 06:15:47;;;;;;;;;;;20.50;99.90;;;;;;5009716;28;20346;-72
2022/05/23 06:18:14;;;;;;;;;;;20.70;99.90;;;;;;5017593;28;19932;-72
2022/05/23 06:20:44;;;;;;;;;;;20.80;99.90;;;;;;5006912;28;19925;-72
2022/05/23 06:23:10;;;;;;;;;;;21.00;99.90;;;;;;5007209;28;19937;-72
2022/05/23 06:25:46;;;;;;;;;;;21.10;99.90;;;;;;5003694;28;19933;-72
2022/05/23 06:28:16;;;;;;;;;;;21.40;99.90;;;;;;5021361;28;19941;-72
2022/05/23 06:30:43;;;;;;;;;;;21.50;99.90;;;;;;5020185;28;20370;-72
2022/05/23 06:33:21;;;;;;;;;;;21.60;99.90;;;;;;5020970;28;19936;-72
2022/05/23 06:35:57;;;;;;;;;;;21.80;99.90;;;;;;5019912;28;19929;-72
2022/05/23 06:38:26;;;;;;;;;;;22.30;99.90;;;;;;5019168;28;19933;-72
2022/05/23 06:41:21;;;;;;;;;;;22.50;99.90;;;;;;5002393;28;20046;-72
2022/05/23 06:44:20;;;;;;;;;;;23.10;99.90;;;;;;4988861;28;19933;-74
2022/05/23 06:47:07;;;;;;;;;;;23.50;99.90;;;;;;5005066;28;19930;-74
2022/05/23 06:50:07;;;;;;;;;;;24.00;99.90;;;;;;5002932;28;19929;-77
2022/05/23 06:53:06;;;;;;;;;;;24.40;99.90;;;;;;5016902;28;19945;-76
2022/05/23 06:55:42;;;;;;;;;;;24.30;99.90;;;;;;5002922;28;20004;-73
2022/05/23 06:58:10;;;;;;;;;;;24.30;99.90;;;;;;5039125;28;19929;-74
2022/05/23 07:00:37;;;;;;;;;;;24.40;99.90;;;;;;5004251;28;19933;-77
2022/05/23 07:03:15;;;;;;;;;;;24.60;99.90;;;;;;5015426;28;20301;-75
2022/05/23 07:14:20;;;;;;;;;;;24.90;99.90;;;;;;5002574;28;19978;-76
2022/05/23 07:16:48;;;;;;;;;;;24.80;99.90;;;;;;5039641;28;20012;-76
2022/05/23 07:19:18;;;;;;;;;;;24.90;99.90;;;;;;5012454;28;20440;-74
2022/05/23 07:21:59;;;;;;;;;;;25.00;99.90;;;;;;5011855;28;20375;-72
2022/05/23 07:24:34;;;;;;;;;;;25.10;99.90;;;;;;5016008;28;19942;-73
2022/05/23 07:27:06;;;;;;;;;;;25.20;99.90;;;;;;5002683;28;19938;-74
2022/05/23 07:29:33;;;;;;;;;;;25.60;99.90;;;;;;5004385;28;20333;-75
2022/05/23 07:32:06;;;;;;;;;;;26.10;99.90;;;;;;5009041;28;19936;-74
2022/05/23 07:34:33;;;;;;;;;;;26.40;99.90;;;;;;5006277;28;19941;-75
2022/05/23 07:37:00;;;;;;;;;;;26.60;99.90;;;;;;5005438;28;20442;-76
2022/05/23 07:39:28;;;;;;;;;;;26.90;99.90;;;;;;5003062;28;19961;-77
2022/05/23 07:42:08;;;;;;;;;;;27.20;99.90;;;;;;5014443;28;19933;-77
2022/05/23 07:44:35;;;;;;;;;;;27.30;99.90;;;;;;5007414;28;19933;-75
2022/05/23 07:47:08;;;;;;;;;;;27.60;99.90;;;;;;5015631;28;20016;-73
2022/05/23 07:49:37;;;;;;;;;;;28.30;99.90;;;;;;5001060;28;19932;-77
2022/05/23 07:52:14;;;;;;;;;;;28.80;99.90;;;;;;5006376;28;20259;-73
2022/05/23 08:00:33;;;;;;;;;;;30.80;97.00;;;;;;4976894;28;20789;-75
2022/05/23 08:03:16;;;;;;;;;;;31.80;93.30;;;;;;5004833;28;20016;-75
2022/05/23 08:05:45;;;;;;;;;;;31.50;90.10;;;;;;5008163;28;19929;-75
2022/05/23 08:08:13;;;;;;;;;;;31.10;90.20;;;;;;5006141;28;19961;-74
2022/05/23 08:10:40;;;;;;;;;;;31.20;90.20;;;;;;5006098;28;19932;-75
2022/05/23 08:13:09;;;;;;;;;;;31.10;88.70;;;;;;5019392;28;19940;-75
2022/05/23 08:15:38;;;;;;;;;;;31.40;87.70;;;;;;5005145;28;19944;-75
2022/05/23 08:18:09;;;;;;;;;;;31.40;88.10;;;;;;5005337;28;20017;-75
2022/05/23 08:20:41;;;;;;;;;;;31.70;85.40;;;;;;5002920;28;19984;-76
2022/05/23 08:23:07;;;;;;;;;;;32.30;86.50;;;;;;5012002;28;20012;-76
2022/05/23 08:25:42;;;;;;;;;;;32.80;86.20;;;;;;5005589;28;20026;-75
2022/05/23 08:28:11;;;;;;;;;;;33.00;81.90;;;;;;5005193;28;19929;-74
2022/05/23 08:30:39;;;;;;;;;;;32.70;81.50;;;;;;5023327;28;19929;-74
2022/05/23 08:33:23;;;;;;;;;;;32.50;80.30;;;;;;5015618;28;19930;-75
2022/05/23 08:35:53;;;;;;;;;;;31.80;79.00;;;;;;5048813;28;19991;-72
2022/05/23 08:41:19;;;;;;;;;;;28.60;79.80;;;;;;5021710;28;19937;-75
2022/05/23 08:44:02;;;;;;;;;;;30.20;83.90;;;;;;5005784;28;19925;-76
2022/05/23 08:46:34;;;;;;;;;;;30.20;84.30;;;;;;4998996;28;19933;-74
2022/05/23 08:49:05;;;;;;;;;;;30.20;83.80;;;;;;5002349;28;19929;-73
2022/05/23 08:51:42;;;;;;;;;;;30.10;83.90;;;;;;5024963;28;19929;-75
2022/05/23 08:54:17;;;;;;;;;;;30.20;84.60;;;;;;5051443;22;19932;-79
2022/05/23 08:57:12;;;;;;;;;;;30.10;84.20;;;;;;5061141;28;19931;-78
2022/05/23 08:59:44;;;;;;;;;;;30.00;84.00;;;;;;5088167;28;19963;-77
2022/05/23 09:02:20;;;;;;;;;;;29.60;83.00;;;;;;5071650;28;19982;-76
2022/05/23 09:04:53;;;;;;;;;;;29.10;83.20;;;;;;5070570;28;20651;-78
2022/05/23 09:07:24;;;;;;;;;;;28.60;84.30;;;;;;5072747;28;19956;-80
2022/05/23 09:09:56;;;;;;;;;;;28.30;85.30;;;;;;5072654;28;20272;-79
2022/05/23 09:12:23;;;;;;;;;;;28.00;86.10;;;;;;5088972;28;19935;-80
2022/05/23 09:14:51;;;;;;;;;;;27.80;85.90;;;;;;5072580;28;19928;-80
2022/05/23 09:17:20;;;;;;;;;;;27.70;87.10;;;;;;5070260;28;19929;-80
2022/05/23 09:19:52;;;;;;;;;;;27.80;86.90;;;;;;5069269;28;19924;-79
2022/05/23 09:22:20;;;;;;;;;;;27.90;87.60;;;;;;5067977;28;19928;-79
2022/05/23 09:24:48;;;;;;;;;;;28.00;87.10;;;;;;5062989;28;20023;-82
2022/05/23 09:27:18;;;;;;;;;;;28.10;87.50;;;;;;5066747;28;19929;-79
2022/05/23 09:29:50;;;;;;;;;;;28.20;88.60;;;;;;5084718;28;19936;-81
2022/05/23 09:32:20;;;;;;;;;;;28.50;89.50;;;;;;5073027;28;19924;-80
2022/05/23 09:34:49;;;;;;;;;;;29.10;89.40;;;;;;5072175;28;20345;-80
2022/05/23 09:37:19;;;;;;;;;;;30.00;90.30;;;;;;5072612;28;21047;-81
2022/05/23 09:39:50;;;;;;;;;;;30.80;86.80;;;;;;5070638;28;19993;-80
2022/05/23 09:48:07;;;;;;;;;;;30.50;81.20;;;;;;5082537;28;20277;-78
2022/05/23 09:50:36;;;;;;;;;;;29.90;82.10;;;;;;5057797;28;19993;-78
2022/05/23 09:53:05;;;;;;;;;;;29.90;82.70;;;;;;5070800;28;19939;-82
2022/05/23 09:55:33;;;;;;;;;;;29.60;83.00;;;;;;5076451;28;20698;-82
2022/05/23 09:58:01;;;;;;;;;;;29.00;82.30;;;;;;5075049;28;19974;-81
2022/05/23 10:00:32;;;;;;;;;;;28.90;83.20;;;;;;5075619;28;20184;-79
2022/05/23 10:03:02;;;;;;;;;;;28.50;84.70;;;;;;5073199;28;19932;-79
2022/05/23 10:05:34;;;;;;;;;;;28.20;85.40;;;;;;5071778;28;19967;-80
2022/05/23 10:08:10;;;;;;;;;;;28.10;86.40;;;;;;5073374;28;20022;-80
2022/05/23 10:10:38;;;;;;;;;;;28.00;86.60;;;;;;5070882;28;20009;-79
2022/05/23 10:13:20;;;;;;;;;;;27.90;87.00;;;;;;5065917;28;19936;-80
2022/05/23 10:15:49;;;;;;;;;;;27.90;86.50;;;;;;5073306;28;19924;-80
2022/05/23 10:18:19;;;;;;;;;;;28.10;86.70;;;;;;5067907;28;20352;-81
2022/05/23 10:20:47;;;;;;;;;;;28.30;87.00;;;;;;5071954;28;19929;-80
2022/05/23 10:23:15;;;;;;;;;;;28.50;85.50;;;;;;5067101;28;19929;-80
2022/05/23 10:25:44;;;;;;;;;;;28.70;86.60;;;;;;5061127;28;19928;-80
2022/05/23 10:28:14;;;;;;;;;;;29.10;85.40;;;;;;5052599;28;19929;-80
2022/05/23 10:30:44;;;;;;;;;;;29.10;85.70;;;;;;5070717;28;19928;-80
2022/05/23 10:33:13;;;;;;;;;;;29.20;85.40;;;;;;5073200;28;19964;-81
2022/05/23 10:35:44;;;;;;;;;;;29.30;85.10;;;;;;5066671;28;19970;-81
2022/05/23 10:43:49;;;;;;;;;;;28.80;85.90;;;;;;5074586;28;20013;-81
2022/05/23 10:46:17;;;;;;;;;;;28.60;85.50;;;;;;5086611;28;19928;-81
2022/05/23 10:48:46;;;;;;;;;;;28.40;85.90;;;;;;5074291;28;19936;-82
2022/05/23 10:51:21;;;;;;;;;;;28.50;86.30;;;;;;5075011;28;19924;-81
2022/05/23 10:53:54;;;;;;;;;;;28.50;87.30;;;;;;5074780;28;19952;-82
2022/05/23 10:56:27;;;;;;;;;;;28.60;87.50;;;;;;5093751;28;19928;-81
2022/05/23 10:58:57;;;;;;;;;;;28.80;87.20;;;;;;5086870;28;20308;-82
2022/05/23 11:01:41;;;;;;;;;;;28.70;87.00;;;;;;5074542;28;19928;-81
2022/05/23 11:04:13;;;;;;;;;;;28.60;87.60;;;;;;5077536;28;20007;-80
2022/05/23 11:06:47;;;;;;;;;;;28.60;88.10;;;;;;5072238;28;19933;-81
2022/05/23 11:09:22;;;;;;;;;;;28.70;88.30;;;;;;5074089;28;19929;-81
2022/05/23 11:11:54;;;;;;;;;;;28.80;87.90;;;;;;5075220;28;20019;-81
2022/05/23 11:14:28;;;;;;;;;;;28.90;88.10;;;;;;5074637;28;19936;-81
2022/05/23 11:17:02;;;;;;;;;;;29.00;88.90;;;;;;5075562;28;19935;-82
2022/05/23 11:19:32;;;;;;;;;;;29.20;87.90;;;;;;5092016;28;19934;-81
2022/05/23 11:22:02;;;;;;;;;;;29.30;87.80;;;;;;5074983;28;19924;-82
2022/05/23 11:24:34;;;;;;;;;;;29.20;87.60;;;;;;5058635;28;19992;-79
2022/05/23 11:35:23;;;;;;;;;;;28.40;89.40;;;;;;5092565;28;19929;-79
2022/05/23 11:37:50;;;;;;;;;;;28.40;88.00;;;;;;5090741;28;20344;-79
2022/05/23 11:40:33;;;;;;;;;;;28.40;89.00;;;;;;5074267;28;19924;-80
2022/05/23 11:43:03;;;;;;;;;;;28.30;89.20;;;;;;5089273;28;19986;-80
2022/05/23 11:48:33;;;;;;;;;;;27.90;89.50;;;;;;5090577;28;19948;-81
2022/05/23 11:51:10;;;;;;;;;;;27.90;90.40;;;;;;5074642;28;19928;-81
2022/05/23 11:53:39;;;;;;;;;;;28.00;90.30;;;;;;5073091;28;20402;-79
2022/05/23 11:56:08;;;;;;;;;;;27.90;90.30;;;;;;5090166;28;20014;-81
2022/05/23 11:58:43;;;;;;;;;;;27.80;90.60;;;;;;5088994;28;19924;-81
2022/05/23 12:01:22;;;;;;;;;;;27.80;90.60;;;;;;5072064;28;20387;-82
2022/05/23 12:04:04;;;;;;;;;;;27.90;90.70;;;;;;5073547;28;19931;-82
2022/05/23 12:06:39;;;;;;;;;;;28.00;90.70;;;;;;5075313;28;19928;-82
2022/05/23 12:09:07;;;;;;;;;;;28.20;90.70;;;;;;5088110;28;19999;-82
2022/05/23 12:11:35;;;;;;;;;;;28.40;90.70;;;;;;5081469;28;20014;-82
2022/05/23 12:14:15;;;;;;;;;;;28.60;90.50;;;;;;5072924;28;19932;-81
2022/05/23 12:16:43;;;;;;;;;;;28.50;90.70;;;;;;5072449;28;19928;-82
2022/05/23 12:19:15;;;;;;;;;;;28.50;91.00;;;;;;5073692;28;19928;-82
2022/05/23 12:21:45;;;;;;;;;;;28.50;91.10;;;;;;5073178;28;19971;-82
2022/05/23 12:24:18;;;;;;;;;;;28.70;91.30;;;;;;5071576;28;19936;-83
2022/05/23 12:26:50;;;;;;;;;;;28.80;90.60;;;;;;5071867;28;19940;-82
2022/05/23 12:29:32;;;;;;;;;;;28.80;90.60;;;;;;5063288;28;19925;-82
2022/05/23 12:32:18;;;;;;;;;;;28.80;90.50;;;;;;5071591;28;19928;-82
2022/05/23 12:34:47;;;;;;;;;;;28.80;90.50;;;;;;5075354;28;19935;-82
2022/05/23 12:37:15;;;;;;;;;;;28.90;90.60;;;;;;5076595;28;19928;-82
2022/05/23 12:39:49;;;;;;;;;;;28.90;90.40;;;;;;5074745;28;20446;-82
2022/05/23 12:42:27;;;;;;;;;;;29.00;90.50;;;;;;5073516;28;20057;-82
2022/05/23 12:45:09;;;;;;;;;;;29.20;90.40;;;;;;5073255;28;19932;-82
2022/05/23 12:47:57;;;;;;;;;;;29.40;90.50;;;;;;5083443;28;19978;-82
2022/05/23 12:50:31;;;;;;;;;;;29.30;90.70;;;;;;5073257;28;19924;-81
2022/05/23 12:53:19;;;;;;;;;;;28.50;90.10;;;;;;5073528;28;19925;-82
2022/05/23 12:55:51;;;;;;;;;;;29.20;90.60;;;;;;5068630;28;19924;-82
2022/05/23 12:58:29;;;;;;;;;;;29.00;91.10;;;;;;5072541;28;19947;-82
2022/05/23 13:01:00;;;;;;;;;;;28.90;90.90;;;;;;5074176;28;19995;-82
2022/05/23 13:03:32;;;;;;;;;;;28.70;91.20;;;;;;5072696;28;20298;-81
2022/05/23 13:06:01;;;;;;;;;;;28.40;91.40;;;;;;5070229;28;19948;-81
2022/05/23 13:08:32;;;;;;;;;;;27.70;91.20;;;;;;5077525;28;19924;-81
2022/05/23 13:11:01;;;;;;;;;;;27.60;92.00;;;;;;5072117;28;19984;-80
2022/05/23 13:13:30;;;;;;;;;;;27.20;92.40;;;;;;5078210;28;19987;-81
2022/05/23 13:16:13;;;;;;;;;;;26.70;93.10;;;;;;5077726;28;20031;-80
2022/05/23 13:24:12;;;;;;;;;;;26.10;94.70;;;;;;5088908;28;20014;-81
2022/05/23 13:26:38;;;;;;;;;;;25.90;95.30;;;;;;5077012;28;19928;-79
2022/05/23 13:29:09;;;;;;;;;;;25.70;95.30;;;;;;5092794;28;20445;-81
2022/05/23 13:31:38;;;;;;;;;;;25.70;96.80;;;;;;5070372;28;19974;-81
2022/05/23 13:34:08;;;;;;;;;;;25.50;97.10;;;;;;5075202;28;19928;-80
2022/05/23 13:36:41;;;;;;;;;;;25.30;97.60;;;;;;5077421;28;19929;-80
2022/05/23 13:39:11;;;;;;;;;;;25.20;98.30;;;;;;5077980;28;19925;-81
2022/05/23 13:41:39;;;;;;;;;;;25.10;99.10;;;;;;5077853;28;20005;-82
2022/05/23 13:44:06;;;;;;;;;;;25.00;99.70;;;;;;5075345;28;20417;-81
2022/05/23 13:46:36;;;;;;;;;;;24.90;99.80;;;;;;5073559;28;20434;-81
2022/05/23 13:49:08;;;;;;;;;;;24.80;99.90;;;;;;5075683;28;19952;-79
2022/05/23 13:51:38;;;;;;;;;;;24.70;99.90;;;;;;5071648;28;20007;-81
2022/05/23 13:54:07;;;;;;;;;;;24.50;99.90;;;;;;5071572;28;20351;-81
2022/05/23 13:56:35;;;;;;;;;;;24.40;99.90;;;;;;5068556;28;19998;-81
2022/05/23 13:59:05;;;;;;;;;;;24.30;99.90;;;;;;5072210;28;20392;-82
2022/05/23 14:01:36;;;;;;;;;;;24.20;99.90;;;;;;5073588;28;20028;-82
2022/05/23 14:04:06;;;;;;;;;;;24.10;99.90;;;;;;5057129;28;19928;-80
2022/05/23 14:06:37;;;;;;;;;;;24.00;99.90;;;;;;5066874;28;20154;-82
2022/05/23 14:09:05;;;;;;;;;;;23.70;99.90;;;;;;5074468;28;19928;-82
2022/05/23 14:11:34;;;;;;;;;;;23.60;99.90;;;;;;5077390;28;19982;-82
2022/05/23 14:14:11;;;;;;;;;;;23.50;99.90;;;;;;5075871;28;19935;-82
2022/05/23 14:16:38;;;;;;;;;;;23.40;99.90;;;;;;5068669;28;19944;-83
2022/05/23 14:19:13;;;;;;;;;;;23.40;99.90;;;;;;5070715;28;20031;-83
2022/05/23 14:21:41;;;;;;;;;;;23.50;99.90;;;;;;5072203;28;19939;-81
2022/05/23 14:24:19;;;;;;;;;;;23.70;99.90;;;;;;5075586;28;19935;-80
2022/05/23 14:27:01;;;;;;;;;;;24.10;99.90;;;;;;5072919;28;20561;-81
2022/05/23 14:29:28;;;;;;;;;;;24.60;99.90;;;;;;5089897;28;20159;-81
2022/05/23 14:32:00;;;;;;;;;;;25.10;99.90;;;;;;5061823;28;20027;-81
2022/05/23 14:34:28;;;;;;;;;;;25.40;99.90;;;;;;5089836;28;19946;-81
2022/05/23 14:36:59;;;;;;;;;;;25.80;99.90;;;;;;5070710;28;19976;-80
2022/05/23 14:39:27;;;;;;;;;;;26.20;99.90;;;;;;5078066;28;19925;-81
2022/05/23 14:41:54;;;;;;;;;;;26.70;99.90;;;;;;5069951;28;19987;-81
2022/05/23 14:44:27;;;;;;;;;;;27.00;99.90;;;;;;5073709;28;20407;-80
2022/05/23 14:46:58;;;;;;;;;;;27.10;99.90;;;;;;5070716;28;19948;-81
2022/05/23 14:49:27;;;;;;;;;;;27.10;99.90;;;;;;5074037;28;20303;-81
2022/05/23 14:51:54;;;;;;;;;;;27.30;99.90;;;;;;5075782;28;19925;-81
2022/05/23 14:57:09;;;;;;;;;;;27.50;99.90;;;;;;5089078;28;19928;-82
2022/05/23 15:02:26;;;;;;;;;;;28.50;99.90;;;;;;5087884;28;20315;-81
2022/05/23 15:04:55;;;;;;;;;;;26.90;99.90;;;;;;5074777;28;19928;-81
2022/05/23 15:07:23;;;;;;;;;;;26.80;99.90;;;;;;5074896;28;19933;-82
2022/05/23 15:09:51;;;;;;;;;;;26.80;99.90;;;;;;5075177;28;19929;-81
2022/05/23 15:12:20;;;;;;;;;;;26.90;99.90;;;;;;5072720;28;20015;-81
2022/05/23 15:14:47;;;;;;;;;;;27.00;99.90;;;;;;5082371;28;20127;-81
2022/05/23 15:17:17;;;;;;;;;;;27.10;99.90;;;;;;5091072;28;19928;-81
2022/05/23 15:19:44;;;;;;;;;;;27.30;99.90;;;;;;5067095;28;19954;-81
2022/05/23 15:22:13;;;;;;;;;;;27.60;99.90;;;;;;5072998;28;19928;-82
2022/05/23 15:24:40;;;;;;;;;;;27.90;99.90;;;;;;5090112;28;20051;-81
2022/05/23 15:27:13;;;;;;;;;;;28.20;99.90;;;;;;5090045;28;19935;-81
2022/05/23 15:29:40;;;;;;;;;;;28.50;99.90;;;;;;5069972;28;20019;-81
2022/05/23 15:32:07;;;;;;;;;;;28.60;99.90;;;;;;5071037;28;19964;-81
2022/05/23 15:34:34;;;;;;;;;;;28.60;99.90;;;;;;5067205;28;19929;-81
2022/05/23 15:37:01;;;;;;;;;;;28.50;99.90;;;;;;5074696;28;19928;-82
2022/05/23 15:39:28;;;;;;;;;;;28.30;99.90;;;;;;5073032;28;19981;-83
2022/05/23 15:41:56;;;;;;;;;;;28.10;99.90;;;;;;5073324;28;20544;-83
2022/05/23 15:44:30;;;;;;;;;;;27.90;99.90;;;;;;5074093;28;19943;-82
2022/05/23 15:46:58;;;;;;;;;;;27.60;99.90;;;;;;5069949;28;19924;-82
2022/05/23 15:49:26;;;;;;;;;;;27.30;99.90;;;;;;5072782;28;19928;-82
2022/05/23 15:51:53;;;;;;;;;;;27.00;99.90;;;;;;5068945;28;19940;-83
2022/05/23 15:54:20;;;;;;;;;;;26.70;99.90;;;;;;5089383;28;20304;-82
2022/05/23 15:56:47;;;;;;;;;;;26.60;99.90;;;;;;5076112;28;20395;-82
2022/05/23 15:59:15;;;;;;;;;;;26.60;99.90;;;;;;5074001;28;19928;-81
2022/05/23 16:01:43;;;;;;;;;;;26.60;99.90;;;;;;5076615;28;19928;-82
2022/05/23 16:04:13;;;;;;;;;;;26.60;99.90;;;;;;5077019;28;20007;-83
2022/05/23 16:06:40;;;;;;;;;;;26.40;99.90;;;;;;5076829;28;19928;-83